Time;durP1;ratioP1;P1;durP2;ratioP2;P2;SDS_P1;SDS_P2;PMS_P1;PMS_P2;Temp;Humidity;BMP_temperature;BMP_pressure;BME280_temperature;BME280_humidity;BME280_pressure;Samples;Min_cycle;Max_cycle;Signal;HPM_P1;HPM_P2
2022/10/15 00:00:08;;;;;;;15.20;10.32;;;;;;;6.33;100.00;98399.72;1791386;79;21279;-56
2022/10/15 00:02:35;;;;;;;13.70;9.20;;;;;;;6.28;100.00;98399.16;1786286;79;20903;-56
2022/10/15 00:05:03;;;;;;;11.20;8.50;;;;;;;6.27;100.00;98396.73;1769547;80;21533;-57
2022/10/15 00:07:30;;;;;;;12.03;9.40;;;;;;;6.27;100.00;98392.73;1760086;79;20982;-56
2022/10/15 00:09:58;;;;;;;15.23;9.38;;;;;;;6.27;100.00;98398.86;1793459;79;20976;-57
2022/10/15 00:12:26;;;;;;;15.00;9.95;;;;;;;6.26;100.00;98391.95;1763940;79;20940;-56
2022/10/15 00:14:54;;;;;;;13.35;9.70;;;;;;;6.25;100.00;98394.33;1752535;80;20977;-56
2022/10/15 00:17:20;;;;;;;11.35;8.63;;;;;;;6.23;100.00;98389.79;1789423;79;21331;-56
2022/10/15 00:19:47;;;;;;;12.73;8.53;;;;;;;6.24;100.00;98393.27;1760904;80;20964;-57
2022/10/15 00:22:14;;;;;;;15.53;9.23;;;;;;;6.22;100.00;98393.49;1792215;79;20956;-57
2022/10/15 00:24:41;;;;;;;10.98;9.20;;;;;;;6.20;100.00;98391.62;1757465;80;21891;-56
2022/10/15 00:27:08;;;;;;;12.00;9.75;;;;;;;6.18;100.00;98393.21;1763500;80;20853;-56
2022/10/15 00:29:35;;;;;;;12.82;9.15;;;;;;;6.17;100.00;98389.48;1765766;80;20850;-57
2022/10/15 00:32:02;;;;;;;12.13;9.23;;;;;;;6.17;100.00;98392.14;1763978;80;21416;-56
2022/10/15 00:34:29;;;;;;;11.53;8.33;;;;;;;6.14;100.00;98393.97;1753954;80;20930;-56
2022/10/15 00:36:57;;;;;;;10.95;8.70;;;;;;;6.15;100.00;98391.56;1772221;79;21163;-56
2022/10/15 00:39:23;;;;;;;13.62;9.70;;;;;;;6.16;100.00;98393.19;1755568;79;21391;-57
2022/10/15 00:41:51;;;;;;;13.10;10.15;;;;;;;6.15;100.00;98388.38;1771329;80;21436;-56
2022/10/15 00:44:28;;;;;;;13.05;10.15;;;;;;;6.15;100.00;98388.91;1762087;79;21071;-56
2022/10/15 00:47:18;;;;;;;11.12;9.10;;;;;;;6.13;100.00;98385.18;1765475;79;20926;-56
2022/10/15 00:50:06;;;;;;;12.88;8.70;;;;;;;6.12;100.00;98380.13;1772668;79;21247;-56
2022/10/15 00:53:01;;;;;;;12.05;9.33;;;;;;;6.10;100.00;98381.69;1757559;80;21436;-56
2022/10/15 00:55:34;;;;;;;14.20;9.60;;;;;;;6.08;100.00;98379.81;1757984;80;20893;-55
2022/10/15 00:58:12;;;;;;;12.40;8.88;;;;;;;6.07;100.00;98383.54;1771070;81;20940;-56
2022/10/15 01:00:40;;;;;;;10.85;7.97;;;;;;;6.04;100.00;98380.56;1771936;80;21031;-56
2022/10/15 01:03:07;;;;;;;12.15;8.58;;;;;;;6.04;100.00;98379.23;1772862;80;21864;-56
2022/10/15 01:05:35;;;;;;;13.48;8.88;;;;;;;6.00;100.00;98382.12;1765359;80;20949;-56
2022/10/15 01:08:02;;;;;;;12.30;9.15;;;;;;;5.95;100.00;98376.76;1768712;80;20988;-56
2022/10/15 01:10:51;;;;;;;13.00;8.43;;;;;;;5.94;100.00;98377.80;1766011;80;20981;-56
2022/10/15 01:13:46;;;;;;;12.40;8.85;;;;;;;5.95;100.00;98376.76;1755604;79;20932;-57
2022/10/15 01:16:24;;;;;;;11.38;8.33;;;;;;;5.95;100.00;98376.76;1724026;79;21452;-56
2022/10/15 01:18:57;;;;;;;13.83;9.20;;;;;;;5.91;100.00;98371.67;1759906;80;20914;-56
2022/10/15 01:21:39;;;;;;;10.50;8.93;;;;;;;5.89;100.00;98369.25;1767010;80;21484;-57
2022/10/15 01:24:24;;;;;;;13.18;8.83;;;;;;;5.86;100.00;98367.63;1764337;80;21034;-57
2022/10/15 01:27:17;;;;;;;13.95;8.60;;;;;;;5.86;100.00;98371.62;1762497;79;21424;-56
2022/10/15 01:29:53;;;;;;;11.20;7.67;;;;;;;5.83;100.00;98365.44;1767113;79;21970;-56
2022/10/15 01:32:28;;;;;;;13.55;8.20;;;;;;;5.85;100.00;98372.66;1759025;80;20905;-56
2022/10/15 01:35:10;;;;;;;12.75;8.45;;;;;;;5.81;100.00;98371.53;1757483;79;20992;-57
2022/10/15 01:37:55;;;;;;;9.80;7.83;;;;;;;5.78;100.00;98373.35;1755820;80;20871;-56
2022/10/15 01:40:33;;;;;;;12.05;7.53;;;;;;;5.72;100.00;98367.72;1765465;80;20925;-56
2022/10/15 01:43:03;;;;;;;8.50;7.42;;;;;;;5.70;100.00;98371.16;1764587;80;21249;-56
2022/10/15 01:45:48;;;;;;;8.60;7.35;;;;;;;5.68;100.00;98370.58;1789988;79;20885;-57
2022/10/15 01:48:35;;;;;;;10.72;8.70;;;;;;;5.65;100.00;98373.75;1769057;80;21373;-56
2022/10/15 01:51:04;;;;;;;8.55;7.35;;;;;;;5.62;100.00;98375.05;1750053;79;21418;-56
2022/10/15 01:53:33;;;;;;;14.60;7.37;;;;;;;5.60;100.00;98368.38;1761379;80;21324;-56
2022/10/15 01:56:10;;;;;;;9.18;6.85;;;;;;;5.62;100.00;98376.38;1757812;79;21962;-56
2022/10/15 01:58:40;;;;;;;12.18;6.78;;;;;;;5.58;100.00;98371.30;1761124;80;21430;-57
2022/10/15 02:01:07;;;;;;;15.85;7.30;;;;;;;5.57;100.00;98368.87;1770501;80;20897;-56
2022/10/15 02:03:50;;;;;;;11.60;6.90;;;;;;;5.56;100.00;98365.95;1756355;79;21390;-56
2022/10/15 02:06:22;;;;;;;8.78;5.65;;;;;;;5.57;100.00;98371.52;1750206;80;21043;-56
2022/10/15 02:09:21;;;;;;;16.77;6.67;;;;;;;5.52;100.00;98373.08;1794146;79;22084;-56
2022/10/15 02:12:01;;;;;;;10.53;6.50;;;;;;;5.46;100.00;98367.41;1774334;80;20853;-56
2022/10/15 02:14:49;;;;;;;32.23;7.30;;;;;;;5.45;100.00;98376.97;1716666;80;21067;-56
2022/10/15 02:17:17;;;;;;;14.53;6.58;;;;;;;5.42;100.00;98367.64;1760713;80;21101;-56
2022/10/15 02:19:53;;;;;;;9.83;6.47;;;;;;;5.42;100.00;98365.50;1789087;79;21138;-56
2022/10/15 02:22:27;;;;;;;26.50;6.62;;;;;;;5.41;100.00;98366.05;1766783;80;22317;-56
2022/10/15 02:25:04;;;;;;;31.40;7.08;;;;;;;5.43;100.00;98363.13;1770435;80;21456;-56
2022/10/15 02:27:32;;;;;;;25.52;6.90;;;;;;;5.45;100.00;98359.19;1771208;79;20960;-56
2022/10/15 02:29:59;;;;;;;9.98;6.37;;;;;;;5.46;100.00;98363.43;1764417;80;20987;-56
2022/10/15 02:32:26;;;;;;;10.82;6.20;;;;;;;5.45;100.00;98355.20;1743077;81;21008;-55
2022/10/15 02:34:55;;;;;;;19.40;6.37;;;;;;;5.45;100.00;98361.84;1758259;80;21082;-56
2022/10/15 02:37:24;;;;;;;20.52;6.42;;;;;;;5.44;100.00;98368.19;1747317;80;21431;-56
2022/10/15 02:39:51;;;;;;;37.95;7.05;;;;;;;5.43;100.00;98358.62;1785937;79;21005;-56
2022/10/15 02:42:18;;;;;;;14.10;6.67;;;;;;;5.40;100.00;98363.10;1788953;79;20926;-56
2022/10/15 02:44:46;;;;;;;9.20;6.03;;;;;;;5.38;100.00;98359.09;1761958;79;20962;-56
2022/10/15 02:47:13;;;;;;;15.78;6.28;;;;;;;5.36;100.00;98360.67;1789826;79;21926;-56
2022/10/15 02:49:40;;;;;;;37.67;7.53;;;;;;;5.34;100.00;98366.77;1773143;80;20881;-56
2022/10/15 02:52:07;;;;;;;41.15;8.10;;;;;;;5.35;100.00;98370.20;1757074;80;20901;-56
2022/10/15 02:54:34;;;;;;;20.70;7.03;;;;;;;5.35;100.00;98364.37;1788041;79;21349;-56
2022/10/15 02:57:01;;;;;;;14.68;6.60;;;;;;;5.35;100.00;98364.37;1756980;80;20890;-55
2022/10/15 02:59:28;;;;;;;8.33;6.20;;;;;;;5.32;100.00;98365.40;1786599;79;21017;-56
2022/10/15 03:01:55;;;;;;;16.35;6.92;;;;;;;5.30;100.00;98370.16;1760282;80;21530;-55
2022/10/15 03:04:22;;;;;;;36.33;8.18;;;;;;;5.28;100.00;98369.06;1791261;79;20968;-56
2022/10/15 03:06:49;;;;;;;20.35;7.12;;;;;;;5.27;100.00;98366.66;1756752;80;21495;-55
2022/10/15 03:09:16;;;;;;;12.47;6.97;;;;;;;5.25;100.00;98363.45;1787858;79;21062;-56
2022/10/15 03:11:43;;;;;;;17.07;6.78;;;;;;;5.21;100.00;98363.13;1761817;81;21143;-56
2022/10/15 03:14:09;;;;;;;25.32;7.55;;;;;;;5.20;100.00;98368.70;1795360;79;21452;-56
2022/10/15 03:16:38;;;;;;;36.95;8.13;;;;;;;5.21;100.00;98363.13;1760682;80;21429;-56
2022/10/15 03:19:06;;;;;;;10.15;7.28;;;;;;;5.23;100.00;98367.66;1795280;79;20967;-55
2022/10/15 03:21:33;;;;;;;8.45;7.00;;;;;;;5.25;100.00;98366.89;1755268;80;20908;-56
2022/10/15 03:24:06;;;;;;;16.45;7.10;;;;;;;5.26;100.00;98367.70;1783172;79;21232;-56
2022/10/15 03:26:33;;;;;;;21.48;7.95;;;;;;;5.30;100.00;98367.50;1794742;79;21531;-56
2022/10/15 03:29:00;;;;;;;33.55;8.60;;;;;;;5.33;100.00;98373.11;1751239;80;20958;-57
2022/10/15 03:31:28;;;;;;;15.08;7.95;;;;;;;5.33;100.00;98374.44;1765406;80;20928;-56
2022/10/15 03:33:56;;;;;;;15.65;7.53;;;;;;;5.36;100.00;98371.30;1787211;79;20877;-56
2022/10/15 03:36:24;;;;;;;15.18;7.65;;;;;;;5.37;100.00;98366.25;1761556;80;21847;-56
2022/10/15 03:38:52;;;;;;;28.10;7.67;;;;;;;5.38;100.00;98363.07;1794462;79;20829;-56
2022/10/15 03:41:18;;;;;;;39.25;8.43;;;;;;;5.39;100.00;98364.69;1760494;81;21474;-56
2022/10/15 03:43:46;;;;;;;14.38;7.83;;;;;;;5.39;100.00;98364.14;1795326;79;20971;-56
2022/10/15 03:46:13;;;;;;;8.48;7.22;;;;;;;5.42;100.00;98362.33;1768949;80;21016;-56
2022/10/15 03:48:43;;;;;;;10.85;7.83;;;;;;;5.43;100.00;98362.62;1766002;80;21123;-56
2022/10/15 03:51:11;;;;;;;28.87;7.80;;;;;;;5.46;100.00;98367.96;1769608;80;20957;-57
2022/10/15 03:53:39;;;;;;;33.55;7.95;;;;;;;5.47;100.00;98365.56;1762355;79;20902;-56
2022/10/15 03:56:06;;;;;;;18.75;7.92;;;;;;;5.47;100.00;98359.73;1793767;79;20981;-56
2022/10/15 03:58:35;;;;;;;8.60;7.42;;;;;;;5.46;100.00;98360.77;1773129;80;20876;-57
2022/10/15 04:01:10;;;;;;;13.72;8.30;;;;;;;5.48;100.00;98365.86;1765903;80;21097;-57
2022/10/15 04:03:37;;;;;;;20.55;8.13;;;;;;;5.51;100.00;98364.82;1774164;79;20944;-56
2022/10/15 04:06:05;;;;;;;32.50;8.73;;;;;;;5.54;100.00;98360.86;1790910;79;21491;-55
2022/10/15 04:08:32;;;;;;;12.18;7.83;;;;;;;5.54;100.00;98363.00;1758481;80;20969;-55
2022/10/15 04:11:00;;;;;;;14.23;7.25;;;;;;;5.54;100.00;98363.00;1768608;80;20892;-56
2022/10/15 04:13:27;;;;;;;10.55;7.80;;;;;;;5.59;100.00;98365.43;1766768;80;21115;-56
2022/10/15 04:15:55;;;;;;;19.27;8.38;;;;;;;5.61;100.00;98354.02;1792510;79;21380;-56
2022/10/15 04:18:23;;;;;;;12.65;7.75;;;;;;;5.64;100.00;98357.52;1755422;80;21417;-56
2022/10/15 04:20:52;;;;;;;15.95;8.23;;;;;;;5.69;100.00;98356.25;1788213;79;20963;-56
2022/10/15 04:23:21;;;;;;;12.50;8.18;;;;;;;5.68;100.00;98354.63;1793300;79;20853;-57
2022/10/15 04:26:06;;;;;;;13.28;7.40;;;;;;;5.69;100.00;98352.27;1759107;81;21643;-57
2022/10/15 04:28:33;;;;;;;11.63;7.30;;;;;;;5.73;100.00;98346.72;1792941;79;21035;-57
2022/10/15 04:31:00;;;;;;;16.02;7.87;;;;;;;5.76;100.00;98348.88;1769352;80;21001;-57
2022/10/15 04:33:27;;;;;;;20.72;8.58;;;;;;;5.76;100.00;98347.55;1790496;79;21459;-56
2022/10/15 04:36:10;;;;;;;11.83;7.92;;;;;;;5.76;100.00;98343.56;1792609;79;21054;-56
2022/10/15 04:38:51;;;;;;;13.22;7.42;;;;;;;5.75;100.00;98345.93;1736468;80;21175;-56
2022/10/15 04:41:38;;;;;;;10.75;6.92;;;;;;;5.74;100.00;98350.99;1757857;80;21452;-55
2022/10/15 04:44:07;;;;;;;15.68;7.70;;;;;;;5.72;100.00;98350.44;1787676;79;21426;-56
2022/10/15 04:46:35;;;;;;;13.05;7.72;;;;;;;5.73;100.00;98360.00;1762118;80;21622;-57
2022/10/15 04:51:38;;;;;;;13.90;7.22;;;;;;;5.70;100.00;98355.20;1794329;79;21166;-56
2022/10/15 04:54:16;;;;;;;7.87;6.20;;;;;;;5.69;100.00;98356.25;1748746;80;21507;-57
2022/10/15 04:56:58;;;;;;;12.33;7.28;;;;;;;5.68;100.00;98359.95;1789810;79;20927;-56
2022/10/15 04:59:25;;;;;;;14.98;7.70;;;;;;;5.66;100.00;98354.08;1755390;80;20927;-58
2022/10/15 05:02:10;;;;;;;8.68;6.85;;;;;;;5.65;100.00;98355.16;1793147;79;20915;-57
2022/10/15 05:04:37;;;;;;;9.48;6.55;;;;;;;5.67;100.00;98357.03;1794647;79;21160;-57
2022/10/15 05:07:04;;;;;;;12.55;7.08;;;;;;;5.63;100.00;98359.92;1765260;80;21444;-57
2022/10/15 05:09:31;;;;;;;10.40;7.10;;;;;;;5.62;100.00;98359.63;1787360;79;20867;-57
2022/10/15 05:11:58;;;;;;;12.30;7.50;;;;;;;5.62;100.00;98361.77;1787237;79;20966;-57
2022/10/15 05:14:27;;;;;;;8.85;6.58;;;;;;;5.61;100.00;98359.34;1787864;79;21608;-57
2022/10/15 05:17:08;;;;;;;8.15;6.35;;;;;;;5.59;100.00;98366.76;1794337;79;21225;-57
2022/10/15 05:19:36;;;;;;;8.85;6.17;;;;;;;5.58;100.00;98365.17;1751076;80;21612;-57
2022/10/15 05:22:03;;;;;;;8.78;6.83;;;;;;;5.56;100.00;98369.94;1788963;79;20950;-58
2022/10/15 05:24:31;;;;;;;10.08;6.95;;;;;;;5.54;100.00;98366.17;1793458;79;21142;-57
2022/10/15 05:26:59;;;;;;;9.30;6.70;;;;;;;5.54;100.00;98365.66;1755236;79;21496;-58
2022/10/15 05:29:28;;;;;;;9.38;6.55;;;;;;;5.57;100.00;98374.18;1784670;79;20974;-56
2022/10/15 05:31:55;;;;;;;10.65;6.85;;;;;;;5.60;100.00;98371.03;1790225;79;20877;-57
2022/10/15 05:34:27;;;;;;;11.78;7.87;;;;;;;5.61;100.00;98373.95;1793002;79;21369;-57
2022/10/15 05:36:55;;;;;;;12.68;8.43;;;;;;;5.65;100.00;98373.75;1761304;79;21117;-57
2022/10/15 05:39:24;;;;;;;12.28;8.83;;;;;;;5.67;100.00;98368.98;1793318;79;21007;-57
2022/10/15 05:41:52;;;;;;;12.60;7.53;;;;;;;5.70;100.00;98367.95;1774541;80;21788;-57
2022/10/15 05:44:21;;;;;;;9.53;7.22;;;;;;;5.73;100.00;98373.30;1749631;80;20902;-57
2022/10/15 05:46:47;;;;;;;10.95;7.22;;;;;;;5.79;100.00;98374.97;1784784;79;20827;-57
2022/10/15 05:49:18;;;;;;;12.40;7.37;;;;;;;5.85;100.00;98377.45;1783224;79;21482;-57
2022/10/15 05:51:46;;;;;;;11.05;7.22;;;;;;;5.93;100.00;98381.53;1792827;79;20999;-57
2022/10/15 05:54:16;;;;;;;10.32;7.30;;;;;;;5.96;100.00;98375.69;1765471;80;21656;-57
2022/10/15 05:56:43;;;;;;;9.53;6.92;;;;;;;6.02;100.00;98380.02;1759178;80;21540;-57
2022/10/15 05:59:10;;;;;;;10.30;7.30;;;;;;;6.08;100.00;98381.66;1792424;79;21480;-57
2022/10/15 06:01:37;;;;;;;12.43;8.10;;;;;;;6.16;100.00;98382.55;1755930;80;20982;-57
2022/10/15 06:04:04;;;;;;;12.65;6.58;;;;;;;6.22;100.00;98386.84;1792411;79;21023;-55
2022/10/15 06:06:33;;;;;;;13.50;7.37;;;;;;;6.27;100.00;98387.41;1774910;80;21236;-57
2022/10/15 06:09:04;;;;;;;8.78;6.60;;;;;;;6.31;100.00;98382.70;1755178;80;20919;-57
2022/10/15 06:11:29;;;;;;;11.18;6.92;;;;;;;6.40;100.00;98387.02;1762365;80;21016;-57
2022/10/15 06:13:56;;;;;;;13.55;6.90;;;;;;;6.46;100.00;98385.47;1761325;80;20936;-57
2022/10/15 06:16:24;;;;;;;8.73;6.50;;;;;;;6.53;100.00;98387.91;1764153;80;21023;-57
2022/10/15 06:18:52;;;;;;;11.68;8.13;;;;;;;6.61;100.00;98394.91;1755973;80;21097;-56
2022/10/15 06:21:18;;;;;;;26.62;18.98;;;;;;;6.68;100.00;98396.02;1758587;80;20911;-57
2022/10/15 06:23:46;;;;;;;15.58;11.60;;;;;;;6.74;100.00;98399.78;1755949;80;20926;-56
2022/10/15 06:26:14;;;;;;;10.93;7.72;;;;;;;6.80;100.00;98398.78;1753624;80;21011;-55
2022/10/15 06:28:42;;;;;;;18.98;16.12;;;;;;;6.85;100.00;98401.45;1761708;80;21006;-56
2022/10/15 06:31:08;;;;;;;13.58;9.20;;;;;;;6.93;100.00;98399.38;1754546;80;21074;-55
2022/10/15 06:33:41;;;;;;;9.68;7.05;;;;;;;6.99;100.00;98408.48;1756153;80;21586;-56
2022/10/15 06:36:09;;;;;;;12.90;9.20;;;;;;;7.09;100.00;98407.75;1758147;80;20962;-55
2022/10/15 06:38:38;;;;;;;13.05;8.80;;;;;;;7.16;100.00;98406.99;1756227;80;21072;-56
2022/10/15 06:41:06;;;;;;;14.63;8.58;;;;;;;7.24;100.00;98405.16;1758855;80;20861;-56
2022/10/15 06:43:33;;;;;;;12.65;6.90;;;;;;;7.35;100.00;98409.47;1757016;80;21943;-57
2022/10/15 06:46:00;;;;;;;11.20;6.97;;;;;;;7.50;100.00;98409.03;1751959;80;21456;-57
2022/10/15 06:48:27;;;;;;;15.25;7.20;;;;;;;7.66;100.00;98412.55;1771846;80;20919;-56
2022/10/15 06:50:58;;;;;;;13.05;7.70;;;;;;;7.79;100.00;98412.08;1757355;80;20893;-57
2022/10/15 06:53:25;;;;;;;14.25;7.25;;;;;;;7.88;100.00;98407.84;1764573;80;20927;-56
2022/10/15 06:55:58;;;;;;;11.88;6.65;;;;;;;7.99;100.00;98416.13;1754776;80;21302;-56
2022/10/15 06:58:24;;;;;;;11.88;5.87;;;;;;;8.07;100.00;98418.30;1762862;80;20962;-56
2022/10/15 07:00:51;;;;;;;11.33;5.92;;;;;;;8.16;100.00;98415.37;1766327;80;21003;-56
2022/10/15 07:03:17;;;;;;;12.23;7.03;;;;;;;8.27;100.00;98422.10;1769699;80;20900;-56
2022/10/15 07:05:44;;;;;;;12.28;7.53;;;;;;;8.35;100.00;98415.70;1767100;80;20880;-56
2022/10/15 07:08:11;;;;;;;11.48;7.65;;;;;;;8.40;100.00;98428.24;1761747;80;21919;-56
2022/10/15 07:10:38;;;;;;;11.38;7.28;;;;;;;8.40;100.00;98428.24;1755926;80;20935;-56
2022/10/15 07:13:07;;;;;;;15.70;9.70;;;;;;;8.45;100.00;98418.91;1754742;80;20935;-57
2022/10/15 07:15:34;;;;;;;17.73;8.88;;;;;;;8.52;100.00;98426.93;1757492;80;20968;-56
2022/10/15 07:18:01;;;;;;;21.25;11.43;;;;;;;8.62;100.00;98425.58;1766886;80;20849;-56
2022/10/15 07:20:29;;;;;;;20.32;9.65;;;;;;;8.74;100.00;98427.98;1760897;80;21232;-56
2022/10/15 07:23:00;;;;;;;29.37;12.10;;;;;;;8.85;100.00;98424.26;1762883;80;21495;-55
2022/10/15 07:25:28;;;;;;;19.10;9.85;;;;;;;8.95;100.00;98417.55;1757231;80;20880;-57
2022/10/15 07:27:55;;;;;;;18.25;10.10;;;;;;;9.04;100.00;98414.63;1764970;80;21629;-57
2022/10/15 07:30:23;;;;;;;24.70;11.45;;;;;;;9.09;100.00;98415.92;1765177;80;21070;-56
2022/10/15 07:32:51;;;;;;;20.12;10.25;;;;;;;9.17;100.00;98415.39;1761714;80;21122;-56
2022/10/15 07:35:18;;;;;;;15.48;8.60;;;;;;;9.26;100.00;98411.09;1763703;80;21511;-57
2022/10/15 07:37:46;;;;;;;17.98;9.75;;;;;;;9.32;100.00;98416.70;1762676;80;20918;-56
2022/10/15 07:40:13;;;;;;;13.25;7.47;;;;;;;9.43;100.00;98409.44;1779264;80;21057;-56
2022/10/15 07:42:41;;;;;;;12.33;7.65;;;;;;;9.54;100.00;98414.47;1749209;80;21145;-56
2022/10/15 07:45:09;;;;;;;13.28;7.62;;;;;;;9.64;100.00;98420.32;1757734;80;21498;-56
2022/10/15 07:47:40;;;;;;;10.38;6.12;;;;;;;9.76;100.00;98421.34;1761238;80;20962;-56
2022/10/15 07:50:08;;;;;;;16.48;8.75;;;;;;;9.91;100.00;98414.59;1756617;80;21026;-56
2022/10/15 07:52:35;;;;;;;11.80;6.75;;;;;;;10.05;100.00;98415.59;1767167;80;21470;-55
2022/10/15 07:55:02;;;;;;;12.50;6.67;;;;;;;10.18;99.58;98417.67;1763684;80;21106;-56
2022/10/15 07:57:30;;;;;;;10.15;6.65;;;;;;;10.23;98.75;98417.12;1749360;80;21747;-55
2022/10/15 07:59:56;;;;;;;12.28;5.80;;;;;;;10.34;97.73;98421.08;1758206;80;21065;-55
2022/10/15 08:02:23;;;;;;;11.50;7.85;;;;;;;10.37;96.95;98415.95;1760323;80;21532;-56
2022/10/15 08:04:49;;;;;;;13.55;7.58;;;;;;;10.45;97.16;98419.39;1757426;80;20952;-57
2022/10/15 08:07:16;;;;;;;10.88;6.83;;;;;;;10.55;96.63;98420.63;1761058;80;20986;-56
2022/10/15 08:09:43;;;;;;;11.90;6.60;;;;;;;10.63;95.79;98422.73;1768827;80;21247;-56
2022/10/15 08:12:10;;;;;;;10.05;6.03;;;;;;;10.70;95.17;98419.19;1765536;80;21007;-55
2022/10/15 08:14:37;;;;;;;9.70;6.70;;;;;;;10.80;94.91;98423.66;1769670;80;21095;-55
2022/10/15 08:17:06;;;;;;;11.93;7.37;;;;;;;10.92;94.74;98417.40;1769704;80;20980;-55
2022/10/15 08:19:33;;;;;;;12.40;6.62;;;;;;;11.03;94.03;98418.09;1765545;80;20924;-55
2022/10/15 08:22:00;;;;;;;11.10;6.83;;;;;;;11.14;93.11;98418.27;1758558;80;21063;-55
2022/10/15 08:24:27;;;;;;;11.63;6.60;;;;;;;11.21;93.10;98416.83;1754528;80;21399;-56
2022/10/15 08:26:53;;;;;;;12.60;6.53;;;;;;;11.34;92.89;98418.05;1751517;80;20881;-56
2022/10/15 08:29:21;;;;;;;11.63;6.70;;;;;;;11.51;92.20;98422.44;1762780;80;20955;-56
2022/10/15 08:31:48;;;;;;;13.62;7.60;;;;;;;11.64;91.66;98416.36;1772284;80;21067;-57
2022/10/15 08:34:15;;;;;;;11.15;6.92;;;;;;;11.78;90.85;98413.81;1757802;80;21107;-56
2022/10/15 08:36:42;;;;;;;11.65;7.40;;;;;;;11.88;89.90;98417.17;1755824;80;20919;-55
2022/10/15 08:39:09;;;;;;;10.75;6.47;;;;;;;11.95;89.49;98420.30;1764478;80;20944;-58
2022/10/15 08:41:51;;;;;;;9.75;6.05;;;;;;;12.04;88.89;98421.26;1768385;80;20924;-56
2022/10/15 08:44:31;;;;;;;7.80;6.10;;;;;;;12.12;87.57;98419.28;1755119;80;20910;-56
2022/10/15 08:47:32;;;;;;;9.03;6.33;;;;;;;12.15;86.88;98414.66;1734307;81;21305;-57
2022/10/15 08:50:28;;;;;;;9.75;6.25;;;;;;;12.21;87.06;98416.20;1771760;80;20927;-56
2022/10/15 08:52:55;;;;;;;10.13;6.40;;;;;;;12.29;86.17;98418.21;1753448;80;20959;-56
2022/10/15 08:55:22;;;;;;;10.08;6.50;;;;;;;12.37;85.65;98415.42;1758755;80;21070;-56
2022/10/15 08:58:07;;;;;;;10.82;6.33;;;;;;;12.51;86.38;98414.94;1764833;80;20952;-56
2022/10/15 09:00:43;;;;;;;7.62;6.53;;;;;;;12.66;85.74;98416.05;1753378;80;21252;-55
2022/10/15 09:03:34;;;;;;;15.68;7.70;;;;;;;12.83;85.51;98420.89;1767269;80;20923;-56
2022/10/15 09:06:35;;;;;;;8.98;7.28;;;;;;;12.99;84.71;98419.00;1764404;80;20896;-56
2022/10/15 09:09:37;;;;;;;10.53;6.78;;;;;;;13.16;84.02;98419.02;1757882;80;20951;-57
2022/10/15 09:12:57;;;;;;;9.48;6.37;;;;;;;13.30;82.36;98419.29;1703337;81;21502;-55
2022/10/15 09:15:24;;;;;;;11.18;6.20;;;;;;;13.33;81.46;98422.70;1761891;80;21671;-56
2022/10/15 09:17:53;;;;;;;9.43;5.72;;;;;;;13.38;81.10;98423.16;1779696;80;20984;-57
2022/10/15 09:20:33;;;;;;;6.90;5.90;;;;;;;13.47;80.78;98419.48;1763773;80;32557;-56
2022/10/15 09:22:59;;;;;;;8.73;5.92;;;;;;;13.59;80.71;98429.21;1754585;80;20946;-56
2022/10/15 09:25:34;;;;;;;10.75;6.20;;;;;;;13.73;80.26;98420.36;1755953;80;20986;-55
2022/10/15 09:28:07;;;;;;;11.53;6.25;;;;;;;13.87;79.18;98422.48;1766718;80;21215;-55
2022/10/15 09:30:45;;;;;;;11.43;6.62;;;;;;;13.91;78.11;98424.28;1761542;80;21451;-55
2022/10/15 09:33:36;;;;;;;11.35;6.00;;;;;;;13.92;78.14;98422.39;1769663;80;20893;-56
2022/10/15 09:36:27;;;;;;;8.98;6.72;;;;;;;14.01;77.77;98428.11;1757371;80;21009;-56
2022/10/15 09:39:24;;;;;;;9.20;6.50;;;;;;;14.11;77.51;98431.11;1774238;80;20998;-56
2022/10/15 09:42:34;;;;;;;10.03;6.45;;;;;;;14.22;76.76;98429.81;1749156;80;21882;-56
2022/10/15 09:45:05;;;;;;;8.78;6.12;;;;;;;14.29;76.47;98434.23;1752448;80;20889;-56
2022/10/15 09:47:34;;;;;;;13.25;7.65;;;;;;;14.36;76.28;98434.11;1772846;80;20887;-56
2022/10/15 09:50:07;;;;;;;11.03;7.00;;;;;;;14.44;75.62;98432.56;1755832;80;20951;-56
2022/10/15 09:53:09;;;;;;;10.68;6.47;;;;;;;14.50;75.19;98431.91;1766919;80;21644;-56
2022/10/15 09:55:43;;;;;;;11.15;6.60;;;;;;;14.55;75.02;98431.25;1760890;80;22012;-55
2022/10/15 09:58:22;;;;;;;12.47;7.07;;;;;;;14.61;75.29;98430.02;1757419;80;20943;-55
2022/10/15 10:00:56;;;;;;;9.05;6.55;;;;;;;14.69;74.67;98427.95;1754059;80;20996;-56
2022/10/15 10:03:27;;;;;;;10.65;6.42;;;;;;;14.70;73.89;98426.83;1755070;80;20972;-56
2022/10/15 10:06:04;;;;;;;12.55;6.25;;;;;;;14.74;74.60;98419.74;1761553;79;21024;-56
2022/10/15 10:08:38;;;;;;;9.15;7.03;;;;;;;14.86;74.23;98415.91;1786425;80;20994;-56
2022/10/15 10:11:09;;;;;;;13.30;7.35;;;;;;;14.96;73.32;98417.02;1781714;80;20955;-56
2022/10/15 10:13:50;;;;;;;11.57;6.87;;;;;;;15.01;72.33;98421.48;1778431;80;20848;-55
2022/10/15 10:16:18;;;;;;;12.13;7.50;;;;;;;15.02;72.47;98418.50;1788276;80;20963;-56
2022/10/15 10:19:12;;;;;;;10.25;7.50;;;;;;;15.10;71.94;98425.60;1779258;79;20889;-59
2022/10/15 10:21:41;;;;;;;11.53;7.50;;;;;;;15.15;71.38;98428.95;1771768;80;21256;-56
2022/10/15 10:24:29;;;;;;;10.45;7.67;;;;;;;15.07;70.57;98427.79;1784742;79;21391;-56
2022/10/15 10:26:57;;;;;;;13.83;8.08;;;;;;;15.03;70.52;98428.72;1704407;79;20844;-56
2022/10/15 10:29:23;;;;;;;10.32;6.87;;;;;;;14.98;70.20;98418.85;1778419;80;20930;-57
2022/10/15 10:31:51;;;;;;;11.95;8.10;;;;;;;15.02;70.73;98433.34;1785126;80;21006;-56
2022/10/15 10:34:31;;;;;;;11.97;7.75;;;;;;;15.05;71.10;98424.61;1782749;79;21228;-57
2022/10/15 10:37:03;;;;;;;9.88;7.58;;;;;;;15.12;70.88;98433.60;1778711;80;21112;-56
2022/10/15 10:39:32;;;;;;;12.65;7.67;;;;;;;15.18;71.10;98425.64;1762394;80;20860;-56
2022/10/15 10:42:06;;;;;;;10.20;7.03;;;;;;;15.25;71.15;98424.65;1780763;79;20983;-57
2022/10/15 10:44:40;;;;;;;11.90;7.67;;;;;;;15.38;71.01;98417.58;1778569;80;20995;-55
2022/10/15 10:47:16;;;;;;;17.07;7.78;;;;;;;15.51;70.19;98415.34;1781924;79;21253;-56
2022/10/15 10:49:49;;;;;;;12.30;8.00;;;;;;;15.62;69.80;98413.95;1785932;80;21393;-57
2022/10/15 10:52:23;;;;;;;13.35;7.30;;;;;;;15.72;69.46;98413.67;1789112;79;21102;-56
2022/10/15 10:55:18;;;;;;;10.08;7.60;;;;;;;15.82;68.89;98405.30;1777088;80;21015;-57
2022/10/15 10:58:00;;;;;;;10.28;7.47;;;;;;;15.91;68.30;98408.81;1783232;79;20885;-57
2022/10/15 11:00:42;;;;;;;12.90;8.10;;;;;;;16.00;68.06;98407.47;1748293;80;21131;-57
2022/10/15 11:03:32;;;;;;;11.97;7.92;;;;;;;16.08;66.13;98400.75;1780277;79;21604;-57
2022/10/15 11:06:28;;;;;;;21.00;8.73;;;;;;;16.11;65.56;98406.84;1789147;80;21025;-56
2022/10/15 11:09:23;;;;;;;9.90;7.70;;;;;;;16.14;65.35;98407.58;1750068;81;20991;-56
2022/10/15 11:12:27;;;;;;;13.62;7.80;;;;;;;16.15;65.16;98409.18;1777856;80;20979;-57
2022/10/15 11:15:29;;;;;;;11.55;7.72;;;;;;;16.20;65.24;98410.93;1784127;79;21187;-56
2022/10/15 11:18:19;;;;;;;11.15;7.55;;;;;;;16.30;64.68;98411.41;1751032;80;20878;-57
2022/10/15 11:21:20;;;;;;;8.73;6.53;;;;;;;16.40;63.76;98414.35;1750872;80;20923;-57
2022/10/15 11:24:09;;;;;;;12.23;6.40;;;;;;;16.46;63.39;98414.45;1784534;80;20852;-57
2022/10/15 11:27:06;;;;;;;11.40;6.60;;;;;;;16.55;62.76;98414.47;1780781;80;20999;-58
2022/10/15 11:30:04;;;;;;;13.22;6.85;;;;;;;16.64;62.54;98412.55;1774764;80;21502;-57
2022/10/15 11:33:05;;;;;;;11.60;7.60;;;;;;;16.73;62.37;98406.58;1778385;80;21051;-57
2022/10/15 11:36:11;;;;;;;10.95;6.92;;;;;;;16.77;61.61;98404.27;1779309;80;20888;-56
2022/10/15 11:39:02;;;;;;;10.03;6.47;;;;;;;16.84;62.16;98405.16;1784490;80;20888;-56
2022/10/15 11:41:40;;;;;;;8.33;6.62;;;;;;;16.96;61.50;98405.27;1787200;79;20970;-55
2022/10/15 11:44:15;;;;;;;8.73;6.53;;;;;;;17.05;60.01;98404.72;1751935;80;21246;-57
2022/10/15 11:46:56;;;;;;;14.90;6.83;;;;;;;17.10;59.71;98401.81;1749394;80;21019;-57
2022/10/15 11:49:35;;;;;;;10.15;7.25;;;;;;;17.12;59.82;98405.02;1748372;80;21050;-57
2022/10/15 11:52:44;;;;;;;11.68;6.83;;;;;;;17.20;59.67;98402.83;1785158;80;20877;-57
2022/10/15 11:55:22;;;;;;;13.05;6.08;;;;;;;17.32;59.69;98401.59;1789042;79;20915;-56
2022/10/15 11:57:52;;;;;;;8.28;6.70;;;;;;;17.49;59.10;98404.25;1786053;79;21171;-57